createdAt,value
2022-12-27T00:00:57.309Z,1.17
2022-12-27T00:02:01.282Z,1.50
2022-12-27T00:03:04.181Z,1.45
2022-12-27T00:04:07.377Z,1.42
2022-12-27T00:05:13.317Z,1.30
2022-12-27T00:06:20.448Z,1.10
2022-12-27T00:07:23.338Z,1.30
2022-12-27T00:08:26.318Z,1.10
2022-12-27T00:09:33.275Z,1.45
2022-12-27T00:10:36.252Z,1.00
2022-12-27T00:11:43.366Z,1.30
2022-12-27T00:12:46.150Z,1.70
2022-12-27T00:13:49.739Z,0.88
2022-12-27T00:14:52.591Z,1.40
2022-12-27T00:15:55.552Z,1.27
2022-12-27T00:16:58.460Z,1.10
2022-12-27T00:18:01.264Z,1.35
2022-12-27T00:19:04.831Z,1.40
2022-12-27T00:20:11.262Z,1.00
2022-12-27T00:21:15.053Z,1.10
2022-12-27T00:22:18.068Z,1.33
2022-12-27T00:23:20.797Z,0.90
2022-12-27T00:24:23.681Z,0.98
2022-12-27T00:25:26.462Z,0.80
2022-12-27T00:26:34.854Z,1.00
2022-12-27T00:27:38.310Z,1.00
2022-12-27T00:28:41.968Z,1.08
2022-12-27T00:29:44.879Z,1.00
2022-12-27T00:30:54.981Z,0.90
2022-12-27T00:32:04.385Z,0.68
2022-12-27T00:33:07.315Z,1.00
2022-12-27T00:34:11.036Z,1.12
2022-12-27T00:35:13.826Z,0.98
2022-12-27T00:36:19.419Z,0.82
2022-12-27T00:37:22.336Z,1.40
2022-12-27T00:38:25.164Z,0.93
2022-12-27T00:39:27.978Z,1.00
2022-12-27T00:40:31.015Z,1.45
2022-12-27T00:41:33.872Z,0.82
2022-12-27T00:42:36.534Z,0.90
2022-12-27T00:43:39.542Z,1.00
2022-12-27T00:44:43.438Z,1.08
2022-12-27T00:45:46.390Z,0.73
2022-12-27T00:46:49.255Z,0.80
2022-12-27T00:47:52.263Z,0.90
2022-12-27T00:48:55.692Z,1.00
2022-12-27T00:49:58.438Z,0.90
2022-12-27T00:51:07.764Z,0.77
2022-12-27T00:52:10.715Z,0.90
2022-12-27T00:53:14.239Z,1.10
2022-12-27T00:54:17.109Z,0.80
2022-12-27T00:55:19.951Z,1.17
2022-12-27T00:56:29.455Z,0.80
2022-12-27T00:57:32.528Z,0.62
2022-12-27T00:58:40.668Z,0.70
2022-12-27T00:59:44.228Z,0.62
2022-12-27T01:00:47.856Z,0.90
2022-12-27T01:01:50.957Z,0.85
2022-12-27T01:02:54.108Z,0.95
2022-12-27T01:03:58.149Z,0.77
2022-12-27T01:05:01.184Z,1.25
2022-12-27T01:06:13.925Z,0.70
2022-12-27T01:07:16.922Z,0.68
2022-12-27T01:08:19.776Z,0.80
2022-12-27T01:09:22.853Z,0.70
2022-12-27T01:10:25.558Z,0.70
2022-12-27T01:11:29.583Z,0.50
2022-12-27T01:12:32.397Z,0.60
2022-12-27T01:13:35.939Z,0.50
2022-12-27T01:14:42.494Z,0.93
2022-12-27T01:15:45.858Z,0.82
2022-12-27T01:16:49.523Z,1.10
2022-12-27T01:17:52.332Z,0.88
2022-12-27T01:18:57.462Z,0.68
2022-12-27T01:20:00.500Z,0.65
2022-12-27T01:21:11.540Z,0.80
2022-12-27T01:22:14.251Z,0.50
2022-12-27T01:23:17.098Z,0.60
2022-12-27T01:24:19.826Z,0.70
2022-12-27T01:25:22.668Z,0.40
2022-12-27T01:26:26.064Z,0.40
2022-12-27T01:27:29.253Z,0.52
2022-12-27T01:28:32.576Z,0.50
2022-12-27T01:29:35.431Z,0.35
2022-12-27T01:30:38.218Z,0.68
2022-12-27T01:31:41.318Z,0.40
2022-12-27T01:32:44.273Z,0.32
2022-12-27T01:33:47.292Z,0.30
2022-12-27T01:34:51.637Z,0.40
2022-12-27T01:35:54.315Z,0.50
2022-12-27T01:36:57.125Z,0.30
2022-12-27T01:37:59.994Z,0.50
2022-12-27T01:39:03.761Z,0.70
2022-12-27T01:40:07.261Z,0.50
2022-12-27T01:41:46.272Z,0.50
2022-12-27T01:42:55.887Z,0.30
2022-12-27T01:43:58.647Z,0.47
2022-12-27T01:45:04.116Z,0.40
2022-12-27T01:46:07.471Z,0.40
2022-12-27T01:47:13.220Z,0.45
2022-12-27T01:48:24.781Z,0.47
2022-12-27T01:49:27.594Z,0.50
2022-12-27T01:50:42.666Z,0.40
2022-12-27T01:51:45.857Z,0.55
2022-12-27T01:53:12.765Z,0.52
2022-12-27T01:54:15.796Z,0.28
2022-12-27T01:55:33.569Z,0.60
2022-12-27T01:56:36.391Z,0.30
2022-12-27T01:57:41.551Z,0.70
2022-12-27T01:59:08.241Z,0.60
2022-12-27T02:00:11.832Z,0.50
2022-12-27T02:01:32.248Z,0.32
2022-12-27T02:02:35.505Z,0.73
2022-12-27T02:03:45.863Z,0.30
2022-12-27T02:04:49.179Z,0.65
2022-12-27T02:05:52.668Z,0.50
2022-12-27T02:06:55.584Z,0.65
2022-12-27T02:08:14.951Z,0.60
2022-12-27T02:09:36.822Z,0.70
2022-12-27T02:10:40.683Z,0.45
2022-12-27T02:11:52.800Z,0.57
2022-12-27T02:12:56.861Z,0.40
2022-12-27T02:13:59.894Z,0.75
2022-12-27T02:15:04.694Z,0.40
2022-12-27T02:16:16.486Z,0.77
2022-12-27T02:17:25.358Z,0.70
2022-12-27T02:18:28.416Z,0.40
2022-12-27T02:19:40.531Z,0.70
2022-12-27T02:21:06.072Z,0.70
2022-12-27T02:23:01.535Z,0.82
2022-12-27T02:24:41.466Z,0.62
2022-12-27T02:26:05.759Z,0.80
2022-12-27T02:27:37.416Z,1.10
2022-12-27T02:29:17.083Z,0.60
2022-12-27T02:30:20.274Z,0.60
2022-12-27T02:31:30.236Z,0.60
2022-12-27T02:32:57.086Z,0.82
2022-12-27T02:34:02.424Z,0.80
2022-12-27T02:35:20.783Z,0.95
2022-12-27T02:36:27.762Z,1.30
2022-12-27T02:37:34.284Z,0.73
2022-12-27T02:38:42.723Z,0.98
2022-12-27T02:39:48.497Z,0.70
2022-12-27T02:41:13.249Z,0.95
2022-12-27T02:42:37.457Z,1.25
2022-12-27T02:43:58.762Z,0.80
2022-12-27T02:45:21.276Z,1.00
2022-12-27T02:46:45.640Z,0.88
2022-12-27T02:48:07.935Z,0.80
2022-12-27T02:49:51.203Z,1.00
2022-12-27T02:51:46.465Z,0.82
2022-12-27T02:53:08.562Z,0.90
2022-12-27T02:54:36.384Z,0.98
2022-12-27T02:56:09.467Z,1.02
2022-12-27T02:57:37.562Z,1.00
2022-12-27T02:58:43.347Z,0.50
2022-12-27T03:00:38.695Z,0.80
2022-12-27T03:02:08.964Z,0.77
2022-12-27T03:03:29.555Z,0.90
2022-12-27T03:05:00.373Z,0.70
2022-12-27T03:06:41.512Z,0.90
2022-12-27T03:07:54.781Z,0.80
2022-12-27T03:09:54.055Z,0.95
2022-12-27T03:11:20.853Z,0.77
2022-12-27T03:13:06.467Z,0.70
2022-12-27T03:14:42.231Z,0.95
2022-12-27T03:16:07.638Z,1.08
2022-12-27T03:17:37.367Z,0.95
2022-12-27T03:19:01.040Z,0.62
2022-12-27T03:20:28.429Z,0.73
2022-12-27T03:21:57.879Z,1.00
2022-12-27T03:23:22.381Z,0.98
2022-12-27T03:24:51.209Z,0.60
2022-12-27T03:25:58.435Z,0.70
2022-12-27T03:27:04.221Z,1.00
2022-12-27T03:28:44.696Z,1.02
2022-12-27T03:30:11.260Z,1.00
2022-12-27T03:31:42.937Z,1.10
2022-12-27T03:33:14.465Z,1.20
2022-12-27T03:34:32.519Z,1.48
2022-12-27T03:35:41.984Z,1.37
2022-12-27T03:37:03.731Z,0.85
2022-12-27T03:38:09.546Z,1.12
2022-12-27T03:39:34.096Z,1.30
2022-12-27T03:40:39.496Z,1.05
2022-12-27T03:42:09.618Z,1.10
2022-12-27T03:43:16.035Z,1.17
2022-12-27T03:44:24.834Z,0.90
2022-12-27T03:45:58.017Z,1.37
2022-12-27T03:47:28.855Z,0.80
2022-12-27T03:48:39.250Z,1.23
2022-12-27T03:49:50.497Z,1.10
2022-12-27T03:51:05.336Z,1.20
2022-12-27T03:52:15.213Z,1.52
2022-12-27T03:53:50.019Z,1.35
2022-12-27T03:54:57.370Z,1.00
2022-12-27T03:56:00.698Z,1.12
2022-12-27T03:57:14.466Z,1.70
2022-12-27T03:58:17.578Z,1.35
2022-12-27T03:59:21.105Z,1.23
2022-12-27T04:00:23.858Z,1.17
2022-12-27T04:01:26.724Z,1.55
2022-12-27T04:02:29.943Z,1.52
2022-12-27T04:03:32.921Z,1.30
2022-12-27T04:04:36.152Z,1.45
2022-12-27T04:05:39.178Z,1.33
2022-12-27T04:06:42.143Z,1.83
2022-12-27T04:08:03.578Z,2.12
2022-12-27T04:09:24.976Z,1.20
2022-12-27T04:10:46.323Z,1.15
2022-12-27T04:12:07.743Z,1.62
2022-12-27T04:13:29.068Z,1.58
2022-12-27T04:14:50.358Z,1.50
2022-12-27T04:16:11.599Z,1.42
2022-12-27T04:17:33.303Z,1.23
2022-12-27T04:18:54.730Z,1.75
2022-12-27T04:20:16.434Z,1.40
2022-12-27T04:21:37.600Z,1.12
2022-12-27T04:22:59.001Z,1.37
2022-12-27T04:24:20.282Z,0.93
2022-12-27T04:25:41.633Z,1.48
2022-12-27T04:27:02.734Z,1.40
2022-12-27T04:28:24.038Z,1.35
2022-12-27T04:29:45.507Z,1.15
2022-12-27T04:31:06.911Z,1.67
2022-12-27T04:32:28.222Z,1.40
2022-12-27T04:33:49.425Z,2.15
2022-12-27T04:34:52.212Z,1.35
2022-12-27T04:36:04.347Z,1.37
2022-12-27T04:37:14.767Z,1.98
2022-12-27T04:38:17.563Z,1.23
2022-12-27T04:39:20.455Z,2.05
2022-12-27T04:40:41.980Z,1.67
2022-12-27T04:42:03.645Z,1.50
2022-12-27T04:43:25.234Z,1.67
2022-12-27T04:45:03.026Z,1.60
2022-12-27T04:46:28.442Z,1.83
2022-12-27T04:47:50.937Z,1.37
2022-12-27T04:49:12.755Z,1.33
2022-12-27T04:50:49.231Z,1.50
2022-12-27T04:52:10.657Z,1.20
2022-12-27T04:53:34.330Z,1.33
2022-12-27T04:54:55.579Z,1.65
2022-12-27T04:55:58.495Z,2.47
2022-12-27T04:57:01.269Z,1.70
2022-12-27T04:58:04.260Z,1.30
2022-12-27T04:59:26.115Z,1.60
2022-12-27T05:00:50.022Z,2.10
2022-12-27T05:02:04.752Z,2.03
2022-12-27T05:03:11.917Z,1.55
2022-12-27T05:04:14.789Z,1.42
2022-12-27T05:05:17.879Z,1.08
2022-12-27T05:06:20.886Z,1.30
2022-12-27T05:07:42.866Z,1.67
2022-12-27T05:09:04.207Z,1.50
2022-12-27T05:10:26.100Z,0.95
2022-12-27T05:11:47.371Z,1.35
2022-12-27T05:13:08.756Z,1.25
2022-12-27T05:14:15.259Z,1.17
2022-12-27T05:15:18.214Z,1.30
2022-12-27T05:16:21.167Z,1.33
2022-12-27T05:17:24.029Z,1.55
2022-12-27T05:18:27.722Z,2.47
2022-12-27T05:19:30.538Z,1.65
2022-12-27T05:20:36.623Z,1.67
2022-12-27T05:22:01.696Z,2.05
2022-12-27T05:23:24.617Z,1.20
2022-12-27T05:24:46.256Z,1.42
2022-12-27T05:25:49.120Z,1.50
2022-12-27T05:26:52.017Z,1.30
2022-12-27T05:27:55.417Z,1.37
2022-12-27T05:28:59.427Z,2.08
2022-12-27T05:30:02.164Z,1.10
2022-12-27T05:31:06.237Z,1.12
2022-12-27T05:32:13.046Z,1.30
2022-12-27T05:33:16.482Z,1.25
2022-12-27T05:34:19.301Z,1.08
2022-12-27T05:35:22.460Z,1.50
2022-12-27T05:36:25.505Z,1.37
2022-12-27T05:37:28.832Z,1.45
2022-12-27T05:38:31.698Z,1.05
2022-12-27T05:39:34.409Z,1.30
2022-12-27T05:40:37.277Z,1.35
2022-12-27T05:41:39.946Z,1.27
2022-12-27T05:42:42.699Z,1.20
2022-12-27T05:43:45.855Z,1.20
2022-12-27T05:44:48.773Z,1.10
2022-12-27T05:45:51.501Z,1.42
2022-12-27T05:46:55.604Z,1.00
2022-12-27T05:48:00.081Z,1.15
2022-12-27T05:49:03.099Z,1.10
2022-12-27T05:50:07.147Z,1.17
2022-12-27T05:51:19.118Z,0.93
2022-12-27T05:52:22.019Z,1.10
2022-12-27T05:53:24.775Z,1.70
2022-12-27T05:54:27.857Z,0.98
2022-12-27T05:55:30.548Z,1.30
2022-12-27T05:56:35.588Z,1.12
2022-12-27T05:57:39.024Z,1.35
2022-12-27T05:58:42.386Z,1.17
2022-12-27T05:59:45.195Z,1.60
2022-12-27T06:00:48.176Z,1.00
2022-12-27T06:01:51.933Z,1.60
2022-12-27T06:02:55.184Z,1.45
2022-12-27T06:03:57.910Z,1.25
2022-12-27T06:05:00.667Z,1.20
2022-12-27T06:06:04.967Z,1.42
2022-12-27T06:07:09.895Z,1.20
2022-12-27T06:08:12.971Z,1.10
2022-12-27T06:09:15.749Z,1.33
2022-12-27T06:10:18.912Z,1.33
2022-12-27T06:11:21.692Z,1.20
2022-12-27T06:12:24.418Z,1.05
2022-12-27T06:13:27.307Z,1.77
2022-12-27T06:14:30.177Z,0.98
2022-12-27T06:15:33.070Z,1.00
2022-12-27T06:16:37.339Z,1.17
2022-12-27T06:17:40.414Z,0.93
2022-12-27T06:18:43.531Z,1.20
2022-12-27T06:19:46.271Z,1.20
2022-12-27T06:20:49.027Z,1.50
2022-12-27T06:21:51.848Z,0.90
2022-12-27T06:22:54.499Z,0.95
2022-12-27T06:23:57.743Z,0.90
2022-12-27T06:25:00.611Z,1.42
2022-12-27T06:26:13.629Z,1.00
2022-12-27T06:27:16.651Z,0.98
2022-12-27T06:28:19.496Z,1.05
2022-12-27T06:29:22.190Z,1.00
2022-12-27T06:30:24.940Z,0.80
2022-12-27T06:31:28.374Z,1.37
2022-12-27T06:32:32.128Z,1.10
2022-12-27T06:33:35.690Z,0.80
2022-12-27T06:34:38.422Z,1.48
2022-12-27T06:35:41.304Z,1.17
2022-12-27T06:36:50.114Z,1.12
2022-12-27T06:37:53.027Z,1.05
2022-12-27T06:38:56.658Z,1.02
2022-12-27T06:39:59.420Z,0.70
2022-12-27T06:41:03.291Z,1.00
2022-12-27T06:42:05.919Z,1.30
2022-12-27T06:43:08.818Z,1.23
2022-12-27T06:44:11.493Z,0.70
2022-12-27T06:45:14.187Z,1.10
2022-12-27T06:46:18.766Z,1.48
2022-12-27T06:47:21.869Z,1.00
2022-12-27T06:48:25.056Z,0.90
2022-12-27T06:49:28.276Z,0.82
2022-12-27T06:50:31.227Z,0.70
2022-12-27T06:51:34.550Z,0.70
2022-12-27T06:52:37.245Z,1.00
2022-12-27T06:53:40.542Z,0.70
2022-12-27T06:54:43.257Z,0.85
2022-12-27T06:55:46.020Z,0.80
2022-12-27T06:56:48.749Z,0.77
2022-12-27T06:57:51.738Z,0.70
2022-12-27T06:58:54.737Z,0.80
2022-12-27T06:59:57.454Z,0.80
2022-12-27T07:01:10.853Z,0.98
2022-12-27T07:02:14.395Z,0.77
2022-12-27T07:03:17.276Z,0.62
2022-12-27T07:04:20.137Z,0.80
2022-12-27T07:05:22.897Z,1.15
2022-12-27T07:06:27.673Z,0.73
2022-12-27T07:07:30.576Z,0.90
2022-12-27T07:08:33.574Z,0.55
2022-12-27T07:09:36.549Z,1.10
2022-12-27T07:10:39.424Z,0.57
2022-12-27T07:11:42.252Z,0.80
2022-12-27T07:12:45.407Z,0.80
2022-12-27T07:13:51.245Z,0.60
2022-12-27T07:14:54.018Z,0.93
2022-12-27T07:15:56.729Z,0.85
2022-12-27T07:16:59.538Z,0.55
2022-12-27T07:18:02.257Z,1.67
2022-12-27T07:19:05.135Z,0.70
2022-12-27T07:20:08.820Z,0.90
2022-12-27T07:21:18.067Z,1.00
2022-12-27T07:22:20.894Z,1.00
2022-12-27T07:23:23.682Z,0.80
2022-12-27T07:24:26.617Z,0.88
2022-12-27T07:25:29.578Z,0.60
2022-12-27T07:26:32.252Z,0.77
2022-12-27T07:27:36.416Z,0.80
2022-12-27T07:28:39.500Z,1.02
2022-12-27T07:29:45.750Z,0.90
2022-12-27T07:30:48.736Z,0.88
2022-12-27T07:31:51.701Z,0.90
2022-12-27T07:32:55.284Z,0.80
2022-12-27T07:34:00.462Z,0.77
2022-12-27T07:35:03.242Z,0.75
2022-12-27T07:36:09.301Z,0.93
2022-12-27T07:37:12.528Z,0.65
2022-12-27T07:38:15.392Z,0.60
2022-12-27T07:39:18.307Z,0.70
2022-12-27T07:40:21.275Z,0.90
2022-12-27T07:41:24.908Z,0.82
2022-12-27T07:42:29.156Z,0.75
2022-12-27T07:43:33.982Z,0.70
2022-12-27T07:44:36.792Z,0.70
2022-12-27T07:45:39.559Z,0.60
2022-12-27T07:46:42.342Z,0.52
2022-12-27T07:47:45.559Z,0.60
2022-12-27T07:48:48.994Z,0.77
2022-12-27T07:49:52.074Z,0.88
2022-12-27T07:50:56.155Z,0.50
2022-12-27T07:51:58.983Z,0.45
2022-12-27T07:53:02.619Z,0.70
2022-12-27T07:54:05.623Z,0.73
2022-12-27T07:55:08.684Z,0.55
2022-12-27T07:56:23.393Z,0.43
2022-12-27T07:57:29.660Z,0.80
2022-12-27T07:58:36.746Z,0.60
2022-12-27T07:59:39.679Z,0.45
2022-12-27T08:00:42.667Z,0.60
2022-12-27T08:02:04.074Z,0.60
2022-12-27T08:03:07.096Z,0.70
2022-12-27T08:04:09.799Z,0.43
2022-12-27T08:05:12.607Z,0.70
2022-12-27T08:06:34.178Z,0.62
2022-12-27T08:07:38.298Z,0.52
2022-12-27T08:08:43.679Z,0.70
2022-12-27T08:09:47.981Z,0.50
2022-12-27T08:10:51.010Z,0.60
2022-12-27T08:11:54.132Z,0.65
2022-12-27T08:12:56.784Z,0.57
2022-12-27T08:14:00.611Z,1.37
2022-12-27T08:15:03.494Z,0.68
2022-12-27T08:16:07.268Z,0.55
2022-12-27T08:17:29.847Z,0.93
2022-12-27T08:18:32.735Z,0.52
2022-12-27T08:19:35.471Z,0.43
2022-12-27T08:20:38.151Z,0.40
2022-12-27T08:21:40.813Z,0.60
2022-12-27T08:22:43.515Z,0.47
2022-12-27T08:23:53.372Z,0.65
2022-12-27T08:24:56.385Z,0.40
2022-12-27T08:25:59.503Z,0.60
2022-12-27T08:27:02.277Z,0.73
2022-12-27T08:28:11.436Z,0.65
2022-12-27T08:29:14.226Z,0.65
2022-12-27T08:30:17.347Z,0.50
2022-12-27T08:31:21.085Z,1.52
2022-12-27T08:32:24.204Z,0.40
2022-12-27T08:33:28.151Z,0.60
2022-12-27T08:34:30.917Z,0.60
2022-12-27T08:35:52.024Z,0.45
2022-12-27T08:36:56.602Z,0.50
2022-12-27T08:38:02.995Z,0.40
2022-12-27T08:39:08.565Z,0.50
2022-12-27T08:40:12.150Z,0.45
2022-12-27T08:41:15.081Z,1.20
2022-12-27T08:42:17.931Z,0.40
2022-12-27T08:43:20.585Z,0.50
2022-12-27T08:44:24.095Z,0.70
2022-12-27T08:45:27.063Z,0.60
2022-12-27T08:46:31.435Z,0.50
2022-12-27T08:47:34.484Z,0.62
2022-12-27T08:48:41.561Z,0.47
2022-12-27T08:49:44.206Z,0.45
2022-12-27T08:50:46.795Z,0.52
2022-12-27T08:51:50.189Z,0.60
2022-12-27T08:52:57.607Z,0.45
2022-12-27T08:54:01.025Z,0.60
2022-12-27T08:55:04.963Z,0.65
2022-12-27T08:56:07.935Z,0.40
2022-12-27T08:57:10.629Z,0.70
2022-12-27T08:58:16.285Z,0.30
2022-12-27T08:59:19.252Z,0.50
2022-12-27T09:00:22.106Z,0.50
2022-12-27T09:01:25.991Z,0.60
2022-12-27T09:02:29.825Z,0.40
2022-12-27T09:03:32.657Z,0.40
2022-12-27T09:04:35.780Z,0.40
2022-12-27T09:05:41.964Z,0.30
2022-12-27T09:06:48.575Z,0.30
2022-12-27T09:07:51.721Z,0.30
2022-12-27T09:08:56.296Z,0.62
2022-12-27T09:09:59.163Z,0.60
2022-12-27T09:11:10.531Z,1.05
2022-12-27T09:12:13.862Z,0.50
2022-12-27T09:13:16.685Z,0.40
2022-12-27T09:14:19.532Z,0.30
2022-12-27T09:15:22.263Z,0.25
2022-12-27T09:16:29.801Z,0.40
2022-12-27T09:17:33.380Z,0.40
2022-12-27T09:18:36.148Z,0.30
2022-12-27T09:19:39.179Z,0.40
2022-12-27T09:20:42.298Z,0.40
2022-12-27T09:21:45.093Z,0.40
2022-12-27T09:22:47.987Z,0.30
2022-12-27T09:23:51.648Z,0.40
2022-12-27T09:24:54.290Z,0.30
2022-12-27T09:25:57.427Z,0.50
2022-12-27T09:27:00.160Z,0.30
2022-12-27T09:28:03.000Z,0.25
2022-12-27T09:29:06.438Z,0.50
2022-12-27T09:30:09.712Z,0.40
2022-12-27T09:31:13.897Z,0.37
2022-12-27T09:32:16.839Z,0.40
2022-12-27T09:33:19.977Z,0.40
2022-12-27T09:34:22.705Z,0.20
2022-12-27T09:35:25.770Z,0.35
2022-12-27T09:36:29.954Z,0.22
2022-12-27T09:37:32.762Z,0.30
2022-12-27T09:38:36.803Z,0.20
2022-12-27T09:39:39.911Z,0.57
2022-12-27T09:40:55.730Z,0.47
2022-12-27T09:42:46.585Z,0.30
2022-12-27T09:43:53.092Z,0.40
2022-12-27T09:45:18.101Z,0.40
2022-12-27T09:46:25.822Z,0.43
2022-12-27T09:47:43.578Z,0.73
2022-12-27T09:48:49.884Z,0.37
2022-12-27T09:50:07.696Z,0.50
2022-12-27T09:51:19.898Z,0.60
2022-12-27T09:52:51.733Z,0.50
2022-12-27T09:54:30.112Z,0.35
2022-12-27T09:55:42.142Z,0.68
2022-12-27T09:57:18.397Z,0.37
2022-12-27T09:58:49.031Z,0.37
2022-12-27T09:59:58.544Z,0.40
2022-12-27T10:01:02.899Z,0.55
2022-12-27T10:02:37.991Z,0.68
2022-12-27T10:03:40.811Z,0.52
2022-12-27T10:05:18.444Z,0.50
2022-12-27T10:06:12.023Z,0.85
2022-12-27T10:07:42.919Z,0.70
2022-12-27T10:09:23.003Z,0.20
2022-12-27T10:10:38.707Z,0.47
2022-12-27T10:11:50.217Z,0.82
2022-12-27T10:13:13.763Z,0.50
2022-12-27T10:14:19.321Z,0.50
2022-12-27T10:15:29.723Z,0.30
2022-12-27T10:16:40.531Z,1.12
2022-12-27T10:18:21.473Z,0.40
2022-12-27T10:19:33.132Z,0.50
2022-12-27T10:20:47.934Z,0.60
2022-12-27T10:22:05.958Z,0.30
2022-12-27T10:23:16.524Z,0.52
2022-12-27T10:24:20.753Z,0.40
2022-12-27T10:25:26.450Z,0.30
2022-12-27T10:26:29.223Z,0.40
2022-12-27T10:27:32.290Z,0.30
2022-12-27T10:29:00.325Z,0.43
2022-12-27T10:30:23.224Z,0.55
2022-12-27T10:31:27.190Z,0.47
2022-12-27T10:32:30.153Z,0.40
2022-12-27T10:33:35.477Z,0.70
2022-12-27T10:34:38.496Z,0.55
2022-12-27T10:35:41.173Z,0.40
2022-12-27T10:36:45.579Z,0.47
2022-12-27T10:37:49.567Z,0.60
2022-12-27T10:38:52.287Z,0.40
2022-12-27T10:40:12.653Z,0.60
2022-12-27T10:41:50.400Z,0.50
2022-12-27T10:43:19.887Z,0.40
2022-12-27T10:44:23.954Z,0.65
2022-12-27T10:45:42.862Z,0.40
2022-12-27T10:46:52.883Z,0.30
2022-12-27T10:48:00.172Z,0.70
2022-12-27T10:49:20.550Z,0.80
2022-12-27T10:50:26.642Z,0.55
2022-12-27T10:51:39.102Z,0.30
2022-12-27T10:52:41.772Z,0.70
2022-12-27T10:53:50.772Z,0.70
2022-12-27T10:54:55.777Z,0.45
2022-12-27T10:56:41.737Z,0.40
2022-12-27T10:57:44.642Z,0.57
2022-12-27T10:58:58.484Z,0.30
2022-12-27T11:00:28.446Z,0.55
2022-12-27T11:01:35.147Z,0.30
2022-12-27T11:02:53.282Z,0.80
2022-12-27T11:04:20.650Z,0.80
2022-12-27T11:05:30.379Z,0.88
2022-12-27T11:06:33.156Z,0.40
2022-12-27T11:07:36.122Z,0.60
2022-12-27T11:08:38.934Z,0.47
2022-12-27T11:09:50.672Z,1.52
2022-12-27T11:11:32.485Z,0.43
2022-12-27T11:12:36.398Z,0.50
2022-12-27T11:13:39.262Z,0.40
2022-12-27T11:15:18.863Z,0.35
2022-12-27T11:16:35.167Z,0.50
2022-12-27T11:17:45.632Z,0.50
2022-12-27T11:18:52.247Z,0.32
2022-12-27T11:19:58.893Z,0.40
2022-12-27T11:21:02.230Z,0.47
2022-12-27T11:22:09.553Z,0.30
2022-12-27T11:23:19.825Z,0.37
2022-12-27T11:24:23.452Z,0.60
2022-12-27T11:25:28.331Z,0.50
2022-12-27T11:26:42.134Z,0.40
2022-12-27T11:27:52.180Z,0.60
2022-12-27T11:28:58.583Z,0.85
2022-12-27T11:30:01.716Z,0.77
2022-12-27T11:31:10.113Z,0.50
2022-12-27T11:32:12.987Z,0.60
2022-12-27T11:33:33.738Z,0.93
2022-12-27T11:34:47.078Z,0.55
2022-12-27T11:35:53.622Z,0.37
2022-12-27T11:37:06.067Z,0.47
2022-12-27T11:38:23.387Z,0.62
2022-12-27T11:39:55.605Z,0.30
2022-12-27T11:41:09.884Z,0.62
2022-12-27T11:42:28.810Z,0.70
2022-12-27T11:43:38.623Z,0.60
2022-12-27T11:45:03.975Z,0.50
2022-12-27T11:46:24.638Z,0.28
2022-12-27T11:48:45.377Z,0.28
2022-12-27T11:49:50.890Z,0.57
2022-12-27T11:50:56.659Z,0.40
2022-12-27T11:52:17.857Z,0.60
2022-12-27T11:54:34.505Z,0.70
2022-12-27T11:55:52.703Z,0.40
2022-12-27T11:57:14.154Z,0.50
2022-12-27T11:58:52.236Z,0.22
2022-12-27T12:00:14.139Z,0.50
2022-12-27T12:01:33.751Z,0.40
2022-12-27T12:03:15.504Z,0.55
2022-12-27T12:04:41.352Z,0.52
2022-12-27T12:06:10.221Z,0.70
2022-12-27T12:07:37.299Z,0.40
2022-12-27T12:09:16.083Z,0.30
2022-12-27T12:10:37.624Z,0.52
2022-12-27T12:12:01.835Z,0.30
2022-12-27T12:13:10.292Z,0.35
2022-12-27T12:14:28.061Z,0.55
2022-12-27T12:15:45.561Z,0.30
2022-12-27T12:17:22.290Z,0.45
2022-12-27T12:18:31.607Z,0.73
2022-12-27T12:20:02.072Z,0.32
2022-12-27T12:21:23.492Z,0.60
2022-12-27T12:22:32.124Z,0.37
2022-12-27T12:23:59.699Z,0.60
2022-12-27T12:25:22.229Z,0.50
2022-12-27T12:26:27.190Z,0.82
2022-12-27T12:27:50.789Z,0.60
2022-12-27T12:29:11.973Z,0.37
2022-12-27T12:30:41.773Z,0.40
2022-12-27T12:32:21.894Z,0.40
2022-12-27T12:33:42.259Z,0.40
2022-12-27T12:34:57.830Z,0.73
2022-12-27T12:36:37.248Z,0.47
2022-12-27T12:38:12.386Z,0.40
2022-12-27T12:39:36.435Z,0.30
2022-12-27T12:40:54.641Z,0.52
2022-12-27T12:42:26.515Z,0.62
2022-12-27T12:43:57.179Z,0.62
2022-12-27T12:45:31.207Z,0.45
2022-12-27T12:47:16.095Z,0.40
2022-12-27T12:48:43.665Z,0.40
2022-12-27T12:50:19.864Z,0.60
2022-12-27T12:51:41.876Z,0.40
2022-12-27T12:53:31.990Z,0.37
2022-12-27T12:54:40.476Z,0.40
2022-12-27T12:55:53.602Z,0.32
2022-12-27T12:57:02.458Z,0.62
2022-12-27T12:58:14.149Z,0.50
2022-12-27T12:59:25.599Z,0.40
2022-12-27T13:00:47.127Z,0.62
2022-12-27T13:02:08.540Z,0.50
2022-12-27T13:03:38.044Z,0.35
2022-12-27T13:05:04.419Z,0.40
2022-12-27T13:06:36.381Z,0.30
2022-12-27T13:07:54.593Z,0.37
2022-12-27T13:09:11.035Z,0.43
2022-12-27T13:10:43.789Z,0.50
2022-12-27T13:12:04.940Z,0.62
2022-12-27T13:13:55.996Z,0.52
2022-12-27T13:15:39.646Z,0.55
2022-12-27T13:16:45.339Z,0.50
2022-12-27T13:17:51.250Z,0.50
2022-12-27T13:19:14.725Z,0.40
2022-12-27T13:20:41.969Z,0.60
2022-12-27T13:22:09.259Z,0.37
2022-12-27T13:23:30.976Z,0.52
2022-12-27T13:24:57.734Z,0.57
2022-12-27T13:26:12.478Z,0.50
2022-12-27T13:27:35.516Z,0.62
2022-12-27T13:29:01.402Z,0.47
2022-12-27T13:30:20.273Z,0.45
2022-12-27T13:31:44.528Z,0.70
2022-12-27T13:33:06.058Z,0.52
2022-12-27T13:34:29.830Z,0.45
2022-12-27T13:36:01.707Z,0.70
2022-12-27T13:37:07.255Z,0.37
2022-12-27T13:38:29.983Z,0.50
2022-12-27T13:39:41.689Z,0.60
2022-12-27T13:40:44.425Z,0.30
2022-12-27T13:42:00.167Z,0.40
2022-12-27T13:43:21.022Z,0.50
2022-12-27T13:45:08.359Z,0.40
2022-12-27T13:46:23.316Z,0.40
2022-12-27T13:47:39.879Z,0.60
2022-12-27T13:49:17.143Z,0.60
2022-12-27T13:51:03.115Z,0.52
2022-12-27T13:52:26.895Z,0.35
2022-12-27T13:54:01.951Z,0.80
2022-12-27T13:55:32.501Z,0.80
2022-12-27T13:57:14.192Z,0.60
2022-12-27T13:58:45.971Z,0.30
2022-12-27T14:00:10.321Z,0.50
2022-12-27T14:01:28.427Z,0.40
2022-12-27T14:02:53.343Z,0.50
2022-12-27T14:04:22.921Z,0.40
2022-12-27T14:05:31.566Z,0.80
2022-12-27T14:06:59.820Z,0.73
2022-12-27T14:08:44.733Z,0.40
2022-12-27T14:10:02.470Z,0.62
2022-12-27T14:11:33.866Z,0.50
2022-12-27T14:12:45.973Z,0.70
2022-12-27T14:13:49.734Z,0.57
2022-12-27T14:14:57.847Z,0.60
2022-12-27T14:16:21.478Z,0.70
2022-12-27T14:18:10.974Z,0.50
2022-12-27T14:19:31.891Z,0.73
2022-12-27T14:20:37.667Z,0.50
2022-12-27T14:21:52.923Z,0.65
2022-12-27T14:23:22.147Z,0.90
2022-12-27T14:25:13.193Z,0.40
2022-12-27T14:26:50.656Z,0.77
2022-12-27T14:28:30.626Z,0.62
2022-12-27T14:30:00.215Z,0.88
2022-12-27T14:31:36.417Z,0.60
2022-12-27T14:33:11.174Z,0.57
2022-12-27T14:34:59.711Z,0.73
2022-12-27T14:36:41.461Z,0.80
2022-12-27T14:38:18.040Z,0.40
2022-12-27T14:39:57.788Z,0.50
2022-12-27T14:41:28.633Z,0.50
2022-12-27T14:42:43.253Z,0.50
2022-12-27T14:44:22.919Z,0.52
2022-12-27T14:45:58.100Z,0.50
2022-12-27T14:47:31.632Z,0.68
2022-12-27T14:48:55.134Z,0.50
2022-12-27T14:50:06.583Z,1.17
2022-12-27T14:51:58.178Z,0.60
2022-12-27T14:53:13.177Z,0.62
2022-12-27T14:54:59.121Z,0.65
2022-12-27T14:56:26.689Z,0.62
2022-12-27T14:57:50.844Z,0.60
2022-12-27T14:59:18.819Z,0.68
2022-12-27T15:00:24.765Z,0.70
2022-12-27T15:01:41.312Z,0.77
2022-12-27T15:03:03.188Z,0.93
2022-12-27T15:04:15.328Z,0.50
2022-12-27T15:05:56.016Z,0.80
2022-12-27T15:07:18.770Z,0.68
2022-12-27T15:08:52.028Z,0.77
2022-12-27T15:09:57.575Z,0.70
2022-12-27T15:11:19.220Z,1.45
2022-12-27T15:12:34.974Z,0.60
2022-12-27T15:13:48.214Z,0.77
2022-12-27T15:15:15.983Z,0.70
2022-12-27T15:16:30.843Z,0.70
2022-12-27T15:17:58.269Z,0.90
2022-12-27T15:19:37.715Z,1.27
2022-12-27T15:20:55.648Z,0.65
2022-12-27T15:22:06.979Z,1.02
2022-12-27T15:23:24.900Z,1.12
2022-12-27T15:24:50.776Z,0.70
2022-12-27T15:26:11.563Z,0.70
2022-12-27T15:27:25.497Z,0.82
2022-12-27T15:28:51.866Z,1.00
2022-12-27T15:30:22.485Z,1.10
2022-12-27T15:31:45.908Z,1.35
2022-12-27T15:33:10.363Z,1.00
2022-12-27T15:34:40.205Z,0.70
2022-12-27T15:36:14.174Z,0.73
2022-12-27T15:37:47.878Z,0.70
2022-12-27T15:40:22.300Z,0.70
2022-12-27T15:41:33.771Z,0.80
2022-12-27T15:42:44.811Z,0.77
2022-12-27T15:44:26.894Z,0.75
2022-12-27T15:45:54.169Z,0.73
2022-12-27T15:47:05.306Z,0.98
2022-12-27T15:48:29.386Z,0.88
2022-12-27T15:50:08.295Z,0.90
2022-12-27T15:51:33.358Z,1.00
2022-12-27T15:52:53.412Z,0.88
2022-12-27T15:54:31.480Z,0.80
2022-12-27T15:55:58.241Z,0.70
2022-12-27T15:57:30.066Z,0.90
2022-12-27T15:58:33.489Z,0.80
2022-12-27T15:59:42.409Z,0.70
2022-12-27T16:00:46.354Z,0.80
2022-12-27T16:01:49.305Z,0.70
2022-12-27T16:02:56.620Z,0.68
2022-12-27T16:04:19.555Z,0.60
2022-12-27T16:05:22.393Z,0.60
2022-12-27T16:06:48.580Z,0.75
2022-12-27T16:08:03.830Z,1.35
2022-12-27T16:09:24.737Z,0.70
2022-12-27T16:10:30.618Z,0.70
2022-12-27T16:12:10.031Z,0.80
2022-12-27T16:13:41.857Z,0.85
2022-12-27T16:14:45.972Z,0.80
2022-12-27T16:15:53.024Z,0.80